createdAt,value
2019-01-20T00:01:04.939Z,-1.50
2019-01-20T00:03:34.035Z,-1.50
2019-01-20T00:06:03.283Z,-1.50
2019-01-20T00:08:32.374Z,-1.60
2019-01-20T00:11:01.536Z,-1.60
2019-01-20T00:13:30.715Z,-1.50
2019-01-20T00:16:02.321Z,-1.50
2019-01-20T00:18:45.039Z,-1.50
2019-01-20T00:21:17.668Z,-1.50
2019-01-20T00:24:00.453Z,-1.50
2019-01-20T00:26:31.626Z,-1.50
2019-01-20T00:29:02.752Z,-1.50
2019-01-20T00:31:35.899Z,-1.50
2019-01-20T00:34:08.753Z,-1.50
2019-01-20T00:36:38.690Z,-1.50
2019-01-20T00:39:09.219Z,-1.60
2019-01-20T00:41:38.594Z,-1.60
2019-01-20T00:44:11.499Z,-1.60
2019-01-20T00:46:42.466Z,-1.60
2019-01-20T00:49:14.962Z,-1.40
2019-01-20T00:51:43.870Z,-1.40
2019-01-20T00:54:13.307Z,-1.40
2019-01-20T00:56:42.402Z,-1.40
2019-01-20T00:59:12.296Z,-1.30
2019-01-20T01:01:42.209Z,-1.30
2019-01-20T01:04:11.308Z,-1.40
2019-01-20T01:06:40.350Z,-1.40
2019-01-20T01:09:09.366Z,-1.40
2019-01-20T01:11:39.328Z,-1.40
2019-01-20T01:14:08.282Z,-1.40
2019-01-20T01:16:37.361Z,-1.40
2019-01-20T01:19:06.382Z,-1.50
2019-01-20T01:21:35.291Z,-1.60
2019-01-20T01:24:04.160Z,-1.60
2019-01-20T01:26:32.969Z,-1.60
2019-01-20T01:29:01.973Z,-1.60
2019-01-20T01:31:30.849Z,-1.60
2019-01-20T01:33:59.805Z,-1.70
2019-01-20T01:36:28.798Z,-1.70
2019-01-20T01:38:57.857Z,-1.70
2019-01-20T01:41:26.617Z,-1.70
2019-01-20T01:43:55.434Z,-1.70
2019-01-20T01:46:24.181Z,-1.70
2019-01-20T01:48:52.946Z,-1.70
2019-01-20T01:51:21.679Z,-1.70
2019-01-20T01:53:50.435Z,-1.70
2019-01-20T01:56:19.218Z,-1.70
2019-01-20T01:58:48.073Z,-1.80
2019-01-20T02:01:17.724Z,-1.80
2019-01-20T02:03:46.558Z,-1.80
2019-01-20T02:06:15.327Z,-1.80
2019-01-20T02:08:44.107Z,-1.90
2019-01-20T02:11:12.884Z,-1.90
2019-01-20T02:13:41.622Z,-1.80
2019-01-20T02:16:10.477Z,-1.90
2019-01-20T02:18:39.383Z,-1.80
2019-01-20T02:21:08.102Z,-1.80
2019-01-20T02:23:36.888Z,-1.90
2019-01-20T02:26:05.758Z,-1.90
2019-01-20T02:28:34.559Z,-2.00
2019-01-20T02:31:03.359Z,-1.90
2019-01-20T02:33:32.176Z,-1.90
2019-01-20T02:36:01.070Z,-1.90
2019-01-20T02:38:29.843Z,-2.00
2019-01-20T02:40:58.585Z,-2.00
2019-01-20T02:43:27.333Z,-2.00
2019-01-20T02:45:56.131Z,-2.00
2019-01-20T02:48:25.074Z,-2.00
2019-01-20T02:50:53.945Z,-1.90
2019-01-20T02:53:22.850Z,-1.90
2019-01-20T02:55:51.734Z,-2.00
2019-01-20T02:58:20.638Z,-2.00
2019-01-20T03:00:49.621Z,-2.00
2019-01-20T03:03:18.520Z,-2.00
2019-01-20T03:05:47.414Z,-1.90
2019-01-20T03:08:16.227Z,-1.90
2019-01-20T03:10:45.173Z,-1.80
2019-01-20T03:13:13.967Z,-1.80
2019-01-20T03:15:42.714Z,-1.80
2019-01-20T03:18:11.672Z,-1.90
2019-01-20T03:20:40.482Z,-1.90
2019-01-20T03:23:09.227Z,-1.90
2019-01-20T03:25:38.051Z,-2.00
2019-01-20T03:28:06.926Z,-1.90
2019-01-20T03:30:35.809Z,-2.00
2019-01-20T03:33:04.573Z,-2.00
2019-01-20T03:35:33.450Z,-2.10
2019-01-20T03:38:02.344Z,-2.00
2019-01-20T03:40:31.358Z,-2.10
2019-01-20T03:43:00.116Z,-2.10
2019-01-20T03:45:28.966Z,-2.10
2019-01-20T03:47:57.801Z,-2.10
2019-01-20T03:50:26.637Z,-2.20
2019-01-20T03:52:55.423Z,-2.20
2019-01-20T03:55:24.257Z,-2.30
2019-01-20T03:57:53.543Z,-2.20
2019-01-20T04:00:25.342Z,-2.30
2019-01-20T04:02:58.131Z,-2.30
2019-01-20T04:05:26.891Z,-2.30
2019-01-20T04:07:55.658Z,-2.30
2019-01-20T04:10:24.411Z,-2.30
2019-01-20T04:12:53.184Z,-2.40
2019-01-20T04:15:21.938Z,-2.40
2019-01-20T04:17:50.818Z,-2.40
2019-01-20T04:20:19.562Z,-2.40
2019-01-20T04:22:48.403Z,-2.50
2019-01-20T04:25:18.128Z,-2.50
2019-01-20T04:27:46.882Z,-2.60
2019-01-20T04:30:17.454Z,-2.50
2019-01-20T04:32:46.278Z,-2.50
2019-01-20T04:35:14.999Z,-2.60
2019-01-20T04:37:43.796Z,-2.50
2019-01-20T04:40:15.391Z,-2.50
2019-01-20T04:42:44.130Z,-2.50
2019-01-20T04:45:13.216Z,-2.50
2019-01-20T04:47:42.092Z,-2.50
2019-01-20T04:50:13.162Z,-2.50
2019-01-20T04:52:41.909Z,-2.50
2019-01-20T04:55:11.511Z,-2.60
2019-01-20T04:57:40.512Z,-2.60
2019-01-20T05:00:17.771Z,-2.60
2019-01-20T05:02:46.581Z,-2.70
2019-01-20T05:05:16.863Z,-2.70
2019-01-20T05:07:45.614Z,-2.80
2019-01-20T05:10:14.926Z,-2.70
2019-01-20T05:12:43.627Z,-2.70
2019-01-20T05:15:15.190Z,-2.70
2019-01-20T05:17:43.933Z,-2.70
2019-01-20T05:20:12.734Z,-2.70
2019-01-20T05:22:41.546Z,-2.70
2019-01-20T05:25:10.471Z,-2.70
2019-01-20T05:27:39.224Z,-2.70
2019-01-20T05:30:11.542Z,-2.70
2019-01-20T05:32:40.278Z,-2.70
2019-01-20T05:35:09.411Z,-2.70
2019-01-20T05:37:38.176Z,-2.70
2019-01-20T05:40:08.253Z,-2.70
2019-01-20T05:42:36.981Z,-2.70
2019-01-20T05:45:08.628Z,-2.70
2019-01-20T05:47:37.478Z,-2.70
2019-01-20T05:50:07.819Z,-2.70
2019-01-20T05:52:36.580Z,-2.70
2019-01-20T05:55:06.084Z,-2.80
2019-01-20T05:57:34.884Z,-2.70
2019-01-20T06:00:05.234Z,-2.80
2019-01-20T06:02:35.416Z,-2.80
2019-01-20T06:05:05.732Z,-2.90
2019-01-20T06:07:34.566Z,-3.00
2019-01-20T06:10:04.730Z,-2.80
2019-01-20T06:12:33.491Z,-2.80
2019-01-20T06:15:02.315Z,-2.80
2019-01-20T06:17:31.118Z,-2.80
2019-01-20T06:19:59.979Z,-2.80
2019-01-20T06:22:28.749Z,-2.90
2019-01-20T06:24:57.462Z,-2.90
2019-01-20T06:27:26.198Z,-2.90
2019-01-20T06:29:54.954Z,-2.90
2019-01-20T06:32:23.758Z,-2.90
2019-01-20T06:34:52.540Z,-2.90
2019-01-20T06:37:21.372Z,-2.90
2019-01-20T06:39:50.294Z,-2.90
2019-01-20T06:42:19.094Z,-2.90
2019-01-20T06:44:47.832Z,-3.00
2019-01-20T06:47:16.546Z,-3.00
2019-01-20T06:49:45.890Z,-3.00
2019-01-20T06:52:14.904Z,-3.00
2019-01-20T06:54:43.712Z,-3.10
2019-01-20T06:57:12.728Z,-3.10
2019-01-20T06:59:41.562Z,-3.10
2019-01-20T07:02:10.282Z,-3.00
2019-01-20T07:04:39.038Z,-3.00
2019-01-20T07:07:07.811Z,-3.00
2019-01-20T07:09:39.397Z,-3.00
2019-01-20T07:12:08.194Z,-3.00
2019-01-20T07:14:36.982Z,-3.00
2019-01-20T07:17:05.798Z,-3.10
2019-01-20T07:19:34.547Z,-3.10
2019-01-20T07:22:03.407Z,-3.00
2019-01-20T07:24:32.160Z,-3.10
2019-01-20T07:27:00.875Z,-3.00
2019-01-20T07:29:29.592Z,-3.00
2019-01-20T07:31:58.315Z,-3.00
2019-01-20T07:34:27.577Z,-3.00
2019-01-20T07:36:56.422Z,-3.10
2019-01-20T07:39:25.189Z,-3.00
2019-01-20T07:41:53.988Z,-3.10
2019-01-20T07:44:22.730Z,-3.10
2019-01-20T07:46:51.458Z,-3.10
2019-01-20T07:49:20.162Z,-3.10
2019-01-20T07:51:48.878Z,-3.10
2019-01-20T07:54:17.700Z,-3.10
2019-01-20T07:56:46.413Z,-3.10
2019-01-20T07:59:15.134Z,-3.20
2019-01-20T08:01:43.862Z,-3.20
2019-01-20T08:04:12.623Z,-3.20
2019-01-20T08:06:41.393Z,-3.20
2019-01-20T08:09:10.114Z,-3.20
2019-01-20T08:11:38.866Z,-3.20
2019-01-20T08:14:07.651Z,-3.10
2019-01-20T08:16:36.386Z,-3.10
2019-01-20T08:19:05.158Z,-3.10
2019-01-20T08:21:33.861Z,-3.00
2019-01-20T08:24:02.670Z,-3.00
2019-01-20T08:26:31.399Z,-3.00
2019-01-20T08:29:00.118Z,-2.90
2019-01-20T08:31:28.924Z,-2.90
2019-01-20T08:33:57.639Z,-2.90
2019-01-20T08:36:26.494Z,-2.80
2019-01-20T08:38:55.245Z,-2.80
2019-01-20T08:41:26.283Z,-2.80
2019-01-20T08:43:55.094Z,-2.80
2019-01-20T08:46:41.118Z,-2.70
2019-01-20T08:49:09.860Z,-2.70
2019-01-20T08:51:40.322Z,-2.60
2019-01-20T08:54:09.334Z,-2.60
2019-01-20T08:56:38.062Z,-2.50
2019-01-20T08:59:06.778Z,-2.50
2019-01-20T09:01:35.536Z,-2.40
2019-01-20T09:04:04.277Z,-2.40
2019-01-20T09:06:33.002Z,-2.40
2019-01-20T09:09:01.849Z,-2.30
2019-01-20T09:11:30.582Z,-2.20
2019-01-20T09:13:59.432Z,-2.20
2019-01-20T09:16:28.258Z,-2.10
2019-01-20T09:18:56.978Z,-2.10
2019-01-20T09:21:25.719Z,-2.00
2019-01-20T09:23:54.458Z,-1.90
2019-01-20T09:26:23.218Z,-1.80
2019-01-20T09:28:51.938Z,-1.80
2019-01-20T09:31:20.671Z,-1.70
2019-01-20T09:33:50.334Z,-1.60
2019-01-20T09:36:19.055Z,-0.40
2019-01-20T09:38:47.863Z,1.00
2019-01-20T09:41:16.570Z,2.10
2019-01-20T09:43:47.379Z,3.00
2019-01-20T09:46:16.363Z,3.50
2019-01-20T09:48:45.280Z,3.60
2019-01-20T09:51:13.979Z,4.40
2019-01-20T09:53:42.722Z,4.70
2019-01-20T09:56:11.414Z,5.40
2019-01-20T09:58:40.135Z,5.30
2019-01-20T10:01:09.134Z,5.20
2019-01-20T10:03:37.937Z,4.90
2019-01-20T10:06:06.654Z,5.20
2019-01-20T10:08:37.046Z,5.30
2019-01-20T10:11:05.907Z,5.40
2019-01-20T10:13:34.641Z,6.60
2019-01-20T10:16:03.370Z,5.90
2019-01-20T10:18:32.066Z,5.70
2019-01-20T10:21:00.859Z,5.40
2019-01-20T10:23:29.612Z,5.70
2019-01-20T10:25:58.391Z,6.30
2019-01-20T10:28:27.827Z,5.50
2019-01-20T10:30:56.606Z,5.40
2019-01-20T10:33:25.338Z,5.40
2019-01-20T10:36:02.180Z,5.20
2019-01-20T10:38:30.898Z,5.30
2019-01-20T10:43:28.227Z,5.30
2019-01-20T10:45:57.169Z,5.40
2019-01-20T10:48:25.971Z,5.20
2019-01-20T10:50:54.725Z,4.50
2019-01-20T10:53:23.518Z,4.30
2019-01-20T10:55:52.278Z,3.50
2019-01-20T10:58:21.289Z,3.90
2019-01-20T11:00:50.061Z,3.90
2019-01-20T11:03:18.971Z,4.20
2019-01-20T11:05:47.988Z,4.80
2019-01-20T11:08:16.850Z,4.40
2019-01-20T11:10:45.721Z,4.30
2019-01-20T11:13:14.462Z,4.50
2019-01-20T11:15:43.228Z,4.60
2019-01-20T11:18:12.117Z,4.20
2019-01-20T11:20:40.907Z,4.30
2019-01-20T11:23:09.859Z,4.90
2019-01-20T11:25:41.012Z,5.20
2019-01-20T11:28:10.553Z,5.80
2019-01-20T11:30:39.286Z,6.20
2019-01-20T11:33:08.099Z,6.00
2019-01-20T11:35:36.856Z,6.40
2019-01-20T11:38:05.766Z,6.90
2019-01-20T11:40:34.511Z,7.00
2019-01-20T11:43:03.363Z,6.00
2019-01-20T11:45:32.752Z,5.30
2019-01-20T11:48:01.536Z,5.10
2019-01-20T11:50:30.410Z,5.60
2019-01-20T11:52:59.184Z,5.90
2019-01-20T11:55:28.058Z,5.80
2019-01-20T11:57:56.933Z,5.40
2019-01-20T12:00:28.388Z,5.70
2019-01-20T12:02:57.245Z,5.50
2019-01-20T12:05:26.132Z,5.20
2019-01-20T12:07:55.021Z,5.00
2019-01-20T12:10:23.922Z,4.70
2019-01-20T12:12:57.930Z,4.80
2019-01-20T12:15:26.815Z,4.70
2019-01-20T12:17:55.571Z,4.90
2019-01-20T12:20:24.556Z,4.60
2019-01-20T12:22:53.362Z,5.00
2019-01-20T12:25:22.339Z,5.20
2019-01-20T12:27:51.299Z,5.70
2019-01-20T12:30:22.168Z,5.90
2019-01-20T12:32:51.085Z,6.00
2019-01-20T12:35:19.994Z,5.70
2019-01-20T12:37:48.757Z,5.20
2019-01-20T12:40:20.904Z,5.50
2019-01-20T12:42:50.189Z,5.60
2019-01-20T12:45:19.024Z,5.70
2019-01-20T12:47:47.846Z,5.70
2019-01-20T12:50:16.792Z,5.80
2019-01-20T12:52:45.701Z,5.80
2019-01-20T12:55:14.877Z,5.80
2019-01-20T12:57:43.810Z,5.80
2019-01-20T13:00:14.995Z,6.00
2019-01-20T13:02:46.954Z,5.90
2019-01-20T13:05:19.479Z,6.00
2019-01-20T13:07:48.231Z,5.90
2019-01-20T13:10:17.476Z,5.80
2019-01-20T13:12:46.367Z,5.70
2019-01-20T13:15:22.430Z,5.60
2019-01-20T13:17:51.258Z,5.80
2019-01-20T13:20:21.690Z,5.60
2019-01-20T13:22:50.657Z,5.70
2019-01-20T13:25:21.422Z,5.60
2019-01-20T13:27:50.285Z,5.50
2019-01-20T13:30:24.736Z,5.70
2019-01-20T13:32:53.609Z,6.00
2019-01-20T13:35:23.292Z,6.20
2019-01-20T13:38:03.678Z,6.10
2019-01-20T13:40:38.806Z,6.30
2019-01-20T13:43:07.699Z,6.40
2019-01-20T13:45:36.636Z,6.50
2019-01-20T13:48:05.522Z,6.70
2019-01-20T13:50:35.964Z,7.10
2019-01-20T13:53:04.790Z,7.10
2019-01-20T13:55:33.643Z,7.50
2019-01-20T13:58:02.467Z,7.80
2019-01-20T14:00:31.202Z,8.10
2019-01-20T14:02:59.950Z,8.60
2019-01-20T14:05:28.703Z,8.80
2019-01-20T14:07:59.589Z,8.30
2019-01-20T14:10:28.516Z,8.50
2019-01-20T15:31:27.428Z,25.40
2019-01-20T15:33:56.234Z,12.70
2019-01-20T15:36:47.499Z,14.00
2019-01-20T15:39:16.253Z,12.00
2019-01-20T15:41:45.106Z,10.50
2019-01-20T15:44:14.002Z,9.60
2019-01-20T15:46:42.772Z,8.90
2019-01-20T15:49:11.513Z,8.30
2019-01-20T15:51:40.271Z,8.00
2019-01-20T15:54:09.078Z,7.60
2019-01-20T15:56:37.844Z,7.20
2019-01-20T15:59:06.618Z,7.00
2019-01-20T16:01:35.432Z,6.80
2019-01-20T16:04:04.183Z,6.60
2019-01-20T16:06:32.978Z,6.40
2019-01-20T16:09:01.832Z,6.20
2019-01-20T16:11:31.395Z,6.00
2019-01-20T16:14:00.206Z,5.80
2019-01-20T16:16:28.935Z,5.60
2019-01-20T16:18:57.846Z,5.50
2019-01-20T16:21:26.634Z,5.30
2019-01-20T16:23:55.473Z,5.20
2019-01-20T16:26:24.243Z,5.10
2019-01-20T16:28:52.994Z,4.90
2019-01-20T16:31:21.748Z,4.80
2019-01-20T16:33:50.518Z,4.70
2019-01-20T16:36:19.306Z,4.60
2019-01-20T16:38:48.054Z,4.50
2019-01-20T16:41:16.782Z,4.40
2019-01-20T16:43:45.527Z,4.40
2019-01-20T16:46:14.334Z,4.20
2019-01-20T16:48:43.067Z,4.20
2019-01-20T16:51:11.830Z,4.10
2019-01-20T16:53:40.567Z,4.00
2019-01-20T16:56:09.316Z,3.90
2019-01-20T16:58:38.135Z,3.80
2019-01-20T17:01:06.860Z,3.70
2019-01-20T17:03:35.595Z,3.60
2019-01-20T17:06:04.473Z,3.50
2019-01-20T17:08:33.379Z,3.30
2019-01-20T17:11:02.103Z,3.30
2019-01-20T17:13:30.874Z,3.20
2019-01-20T17:15:59.618Z,3.10
2019-01-20T17:18:28.359Z,3.00
2019-01-20T17:20:57.206Z,2.90
2019-01-20T17:23:26.031Z,2.80
2019-01-20T17:25:54.766Z,2.70
2019-01-20T17:28:23.638Z,2.60
2019-01-20T17:30:52.603Z,2.50
2019-01-20T17:33:21.419Z,2.50
2019-01-20T17:35:50.330Z,2.40
2019-01-20T17:38:19.290Z,2.40
2019-01-20T17:40:48.357Z,2.30
2019-01-20T17:43:17.343Z,2.30
2019-01-20T17:45:49.624Z,2.20
2019-01-20T17:48:18.513Z,2.20
2019-01-20T17:50:47.372Z,2.10
2019-01-20T17:53:16.295Z,2.10
2019-01-20T17:55:45.220Z,2.10
2019-01-20T17:58:16.183Z,2.00
2019-01-20T18:00:51.380Z,2.00
2019-01-20T18:03:20.211Z,1.90
2019-01-20T18:05:49.022Z,1.80
2019-01-20T18:08:17.835Z,1.80
2019-01-20T18:10:46.650Z,1.80
2019-01-20T18:13:15.491Z,1.70
2019-01-20T18:15:44.393Z,1.70
2019-01-20T18:18:13.116Z,1.60
2019-01-20T18:20:41.921Z,1.50
2019-01-20T18:23:10.971Z,1.40
2019-01-20T18:25:39.708Z,1.40
2019-01-20T18:28:08.524Z,1.40
2019-01-20T18:30:37.335Z,1.40
2019-01-20T18:33:06.360Z,1.30
2019-01-20T18:35:35.183Z,1.30
2019-01-20T18:38:04.048Z,1.20
2019-01-20T18:40:32.793Z,1.20
2019-01-20T18:43:01.543Z,1.20
2019-01-20T18:45:31.651Z,1.10
2019-01-20T18:48:00.464Z,1.10
2019-01-20T18:50:31.426Z,1.00
2019-01-20T18:53:00.256Z,1.00
2019-01-20T18:55:29.033Z,1.00
2019-01-20T18:57:57.926Z,1.00
2019-01-20T19:00:47.440Z,1.00
2019-01-20T19:03:16.282Z,1.10
2019-01-20T19:05:47.171Z,1.10
2019-01-20T19:08:16.074Z,1.10
2019-01-20T19:10:44.815Z,1.10
2019-01-20T19:13:13.583Z,1.10
2019-01-20T19:15:42.333Z,1.10
2019-01-20T19:18:11.054Z,1.10
2019-01-20T19:20:39.859Z,1.10
2019-01-20T19:23:08.610Z,1.10
2019-01-20T19:25:37.442Z,1.10
2019-01-20T19:28:06.234Z,1.10
2019-01-20T19:30:35.301Z,1.10
2019-01-20T19:33:04.171Z,1.20
2019-01-20T19:35:32.940Z,1.20
2019-01-20T19:38:01.751Z,1.20
2019-01-20T19:40:30.572Z,1.20
2019-01-20T19:43:00.518Z,1.20
2019-01-20T19:45:29.342Z,1.20
2019-01-20T19:47:58.151Z,1.20
2019-01-20T19:50:26.935Z,1.10
2019-01-20T19:52:55.708Z,1.10
2019-01-20T19:55:29.383Z,1.10
2019-01-20T19:57:58.413Z,1.10
2019-01-20T20:00:27.427Z,1.00
2019-01-20T20:02:56.210Z,1.00
2019-01-20T20:05:25.020Z,1.00
2019-01-20T20:07:57.952Z,1.00
2019-01-20T20:10:27.112Z,0.90
2019-01-20T20:12:56.734Z,0.90
2019-01-20T20:15:26.145Z,0.90
2019-01-20T20:17:54.949Z,0.90
2019-01-20T20:20:24.659Z,0.90
2019-01-20T20:22:53.814Z,0.90
2019-01-20T20:25:23.596Z,0.90
2019-01-20T20:27:52.715Z,0.90
2019-01-20T20:30:32.635Z,0.90
2019-01-20T20:33:01.767Z,0.90
2019-01-20T20:35:30.898Z,0.90
2019-01-20T20:38:00.050Z,0.80
2019-01-20T20:40:29.309Z,0.80
2019-01-20T20:42:58.255Z,0.80
2019-01-20T20:45:27.792Z,0.80
2019-01-20T20:47:56.563Z,0.80
2019-01-20T20:50:25.414Z,0.80
2019-01-20T20:52:54.168Z,0.70
2019-01-20T20:55:22.915Z,0.60
2019-01-20T20:57:51.679Z,0.60
2019-01-20T21:00:25.790Z,0.60
2019-01-20T21:02:54.569Z,0.60
2019-01-20T21:05:23.391Z,0.60
2019-01-20T21:07:52.147Z,0.50
2019-01-20T21:10:20.897Z,0.50
2019-01-20T21:12:49.719Z,0.50
2019-01-20T21:15:18.473Z,0.50
2019-01-20T21:17:48.233Z,0.50
2019-01-20T21:20:21.306Z,0.40
2019-01-20T21:22:50.088Z,0.40
2019-01-20T21:25:18.811Z,0.30
2019-01-20T21:27:47.530Z,0.30
2019-01-20T21:30:18.662Z,0.20
2019-01-20T21:32:47.392Z,0.20
2019-01-20T21:35:16.506Z,0.20
2019-01-20T21:37:45.258Z,0.20
2019-01-20T21:40:14.290Z,0.10
2019-01-20T21:42:43.044Z,0.10
2019-01-20T21:45:12.748Z,0.10
2019-01-20T21:47:41.454Z,0.10
2019-01-20T21:50:13.835Z,0.00
2019-01-20T21:52:42.599Z,0.00
2019-01-20T21:55:11.338Z,0.00
2019-01-20T21:57:40.069Z,0.00
2019-01-20T22:00:11.578Z,-0.50
2019-01-20T22:02:40.390Z,-0.20
2019-01-20T22:05:10.042Z,-0.20
2019-01-20T22:07:41.559Z,-0.20
2019-01-20T22:10:13.057Z,-0.20
2019-01-20T22:12:41.790Z,-0.20
2019-01-20T22:15:10.722Z,-0.20
2019-01-20T22:17:39.425Z,-0.20
2019-01-20T22:20:11.071Z,-0.20
2019-01-20T22:22:39.827Z,-0.20
2019-01-20T22:25:09.765Z,-0.20
2019-01-20T22:27:38.479Z,-0.40
2019-01-20T22:30:13.214Z,-0.40
2019-01-20T22:32:41.967Z,-0.50
2019-01-20T22:35:11.123Z,-0.50
2019-01-20T22:37:40.770Z,-0.50
2019-01-20T22:40:10.600Z,-0.50
2019-01-20T22:42:39.342Z,-0.40
2019-01-20T22:45:09.802Z,-0.40
2019-01-20T22:47:38.679Z,-0.50
2019-01-20T22:50:08.902Z,-0.50
2019-01-20T22:52:37.699Z,-0.50
2019-01-20T22:55:07.309Z,-0.50
2019-01-20T22:57:36.031Z,-0.50
2019-01-20T23:00:29.087Z,-0.60
2019-01-20T23:02:57.879Z,-0.50
2019-01-20T23:05:26.654Z,-0.60
2019-01-20T23:07:55.386Z,-0.60
2019-01-20T23:10:24.135Z,-0.60
2019-01-20T23:12:52.846Z,-0.60
2019-01-20T23:15:21.578Z,-0.60
2019-01-20T23:17:50.367Z,-0.70
2019-01-20T23:20:19.134Z,-0.70
2019-01-20T23:22:47.882Z,-0.80
2019-01-20T23:25:16.615Z,-0.80
2019-01-20T23:27:45.372Z,-0.80
2019-01-20T23:30:14.919Z,-0.80
2019-01-20T23:32:43.653Z,-0.80
2019-01-20T23:35:12.398Z,-0.80
2019-01-20T23:37:41.170Z,-0.80
2019-01-20T23:40:10.111Z,-0.80
2019-01-20T23:42:38.957Z,-0.90
2019-01-20T23:45:08.774Z,-0.80
2019-01-20T23:47:37.513Z,-0.90
2019-01-20T23:50:07.764Z,-0.90
2019-01-20T23:52:36.600Z,-0.90
2019-01-20T23:55:05.459Z,-0.90
2019-01-20T23:57:34.207Z,-0.90
